createdAt,value
2023-01-17T00:01:30.855Z,3.50
2023-01-17T00:04:23.652Z,3.49
2023-01-17T00:07:15.103Z,3.51
2023-01-17T00:10:01.622Z,3.47
2023-01-17T00:12:40.630Z,3.48
2023-01-17T00:15:17.884Z,3.51
2023-01-17T00:17:53.745Z,3.47
2023-01-17T00:20:49.655Z,3.49
2023-01-17T00:23:43.106Z,3.55
2023-01-17T00:26:23.360Z,3.52
2023-01-17T00:29:05.504Z,3.53
2023-01-17T00:31:49.073Z,3.59
2023-01-17T00:34:28.909Z,3.69
2023-01-17T00:37:12.061Z,3.71
2023-01-17T00:39:50.883Z,3.72
2023-01-17T00:42:36.030Z,3.71
2023-01-17T00:48:57.641Z,3.72
2023-01-17T00:52:01.003Z,3.69
2023-01-17T00:54:53.243Z,3.77
2023-01-17T00:57:45.088Z,3.77
2023-01-17T01:00:36.400Z,3.71
2023-01-17T01:03:35.121Z,3.79
2023-01-17T01:06:26.099Z,3.75
2023-01-17T01:09:20.274Z,3.76
2023-01-17T01:12:11.156Z,3.86
2023-01-17T01:15:06.085Z,3.85
2023-01-17T01:18:03.624Z,3.85
2023-01-17T01:24:28.075Z,3.87
2023-01-17T01:27:24.120Z,3.83
2023-01-17T01:30:16.028Z,3.80
2023-01-17T01:33:12.010Z,3.84
2023-01-17T01:35:45.984Z,3.87
2023-01-17T01:38:29.389Z,3.88
2023-01-17T01:44:54.104Z,3.80
2023-01-17T01:47:44.019Z,3.87
2023-01-17T01:50:22.971Z,3.92
2023-01-17T01:53:06.781Z,3.91
2023-01-17T01:55:48.773Z,3.86
2023-01-17T01:58:38.203Z,3.92
2023-01-17T02:01:21.857Z,3.94
2023-01-17T02:03:58.013Z,4.05
2023-01-17T02:06:44.951Z,4.07
2023-01-17T02:09:27.276Z,4.11
2023-01-17T02:12:00.451Z,4.03
2023-01-17T02:14:38.704Z,4.11
2023-01-17T02:17:49.241Z,4.13
2023-01-17T02:20:58.889Z,4.16
2023-01-17T02:23:41.329Z,4.17
2023-01-17T02:26:51.565Z,4.17
2023-01-17T02:30:10.940Z,4.06
2023-01-17T02:33:36.451Z,4.12
2023-01-17T02:36:51.060Z,4.15
2023-01-17T02:39:39.013Z,4.09
2023-01-17T02:45:47.399Z,4.18
2023-01-17T02:48:40.039Z,4.04
2023-01-17T02:51:20.866Z,4.06
2023-01-17T02:54:29.954Z,4.09
2023-01-17T02:57:38.172Z,4.18
2023-01-17T03:00:40.959Z,4.11
2023-01-17T03:03:40.896Z,4.13
2023-01-17T03:06:40.104Z,4.12
2023-01-17T03:09:18.687Z,4.10
2023-01-17T03:11:59.478Z,4.14
2023-01-17T03:14:37.813Z,4.19
2023-01-17T03:17:18.538Z,4.17
2023-01-17T03:19:49.524Z,4.20
2023-01-17T03:22:30.934Z,4.22
2023-01-17T03:25:11.105Z,4.18
2023-01-17T03:27:59.150Z,4.22
2023-01-17T03:30:32.490Z,4.21
2023-01-17T03:33:12.687Z,4.29
2023-01-17T03:35:50.665Z,4.30
2023-01-17T03:38:35.645Z,4.35
2023-01-17T03:44:37.847Z,4.31
2023-01-17T03:47:15.153Z,4.29
2023-01-17T03:49:53.574Z,4.25
2023-01-17T03:52:29.575Z,4.30
2023-01-17T03:55:03.021Z,4.34
2023-01-17T03:57:42.369Z,4.28
2023-01-17T04:00:19.210Z,4.30
2023-01-17T04:02:58.783Z,4.31
2023-01-17T04:05:40.896Z,4.27
2023-01-17T04:08:29.058Z,4.43
2023-01-17T04:10:58.169Z,4.39
2023-01-17T04:13:41.193Z,4.38
2023-01-17T04:16:22.938Z,4.41
2023-01-17T04:19:03.727Z,4.41
2023-01-17T04:21:35.391Z,4.38
2023-01-17T04:24:11.433Z,4.39
2023-01-17T04:26:42.681Z,4.35
2023-01-17T04:29:27.487Z,4.35
2023-01-17T04:32:07.929Z,4.35
2023-01-17T04:34:45.592Z,4.39
2023-01-17T04:37:25.331Z,4.36
2023-01-17T04:40:00.470Z,4.45
2023-01-17T04:42:32.248Z,4.45
2023-01-17T04:48:41.923Z,4.49
2023-01-17T04:51:20.345Z,4.45
2023-01-17T04:54:03.878Z,4.42
2023-01-17T04:56:39.722Z,4.56
2023-01-17T04:59:15.204Z,4.50
2023-01-17T05:01:54.911Z,4.46
2023-01-17T05:04:39.978Z,4.51
2023-01-17T05:07:19.112Z,4.54
2023-01-17T05:09:52.701Z,4.43
2023-01-17T05:12:29.377Z,4.42
2023-01-17T05:15:07.882Z,4.42
2023-01-17T05:17:49.365Z,4.46
2023-01-17T05:20:29.464Z,4.51
2023-01-17T05:23:00.429Z,4.44
2023-01-17T05:25:32.211Z,4.45
2023-01-17T05:28:02.581Z,4.42
2023-01-17T05:30:32.261Z,4.44
2023-01-17T05:33:03.779Z,4.48
2023-01-17T05:35:34.204Z,4.45
2023-01-17T05:38:11.784Z,4.32
2023-01-17T05:40:46.894Z,4.44
2023-01-17T05:43:14.158Z,4.64
2023-01-17T05:45:41.586Z,4.98
2023-01-17T05:48:09.361Z,5.28
2023-01-17T05:50:38.307Z,5.52
2023-01-17T05:53:08.888Z,5.70
2023-01-17T05:55:36.675Z,5.90
2023-01-17T05:58:04.887Z,6.17
2023-01-17T06:00:32.323Z,6.20
2023-01-17T06:03:00.606Z,6.10
2023-01-17T06:05:28.713Z,6.05
2023-01-17T06:07:56.622Z,5.67
2023-01-17T06:10:24.542Z,5.45
2023-01-17T06:13:01.108Z,5.21
2023-01-17T06:15:28.437Z,4.93
2023-01-17T06:17:55.638Z,4.75
2023-01-17T06:20:22.631Z,4.61
2023-01-17T06:22:50.207Z,4.59
2023-01-17T06:25:17.220Z,4.48
2023-01-17T06:27:44.296Z,4.40
2023-01-17T06:30:11.945Z,4.30
2023-01-17T06:32:38.924Z,4.26
2023-01-17T06:35:06.280Z,4.19
2023-01-17T06:37:33.565Z,4.19
2023-01-17T06:40:00.584Z,4.17
2023-01-17T06:42:27.592Z,4.21
2023-01-17T06:44:54.847Z,4.21
2023-01-17T06:47:21.860Z,4.21
2023-01-17T06:49:48.845Z,4.19
2023-01-17T06:52:16.305Z,4.15
2023-01-17T06:54:43.329Z,4.21
2023-01-17T06:57:10.307Z,4.25
2023-01-17T06:59:37.749Z,4.15
2023-01-17T07:02:04.806Z,4.07
2023-01-17T07:04:31.851Z,4.11
2023-01-17T07:06:59.199Z,4.06
2023-01-17T07:09:26.606Z,4.10
2023-01-17T07:11:59.631Z,4.09
2023-01-17T07:14:26.949Z,4.14
2023-01-17T07:16:54.686Z,4.11
2023-01-17T07:19:22.495Z,3.97
2023-01-17T07:21:54.179Z,3.88
2023-01-17T07:24:21.751Z,3.89
2023-01-17T07:26:50.118Z,3.82
2023-01-17T07:29:18.195Z,3.66
2023-01-17T07:31:45.756Z,3.68
2023-01-17T07:34:12.773Z,3.64
2023-01-17T07:36:43.060Z,3.49
2023-01-17T07:39:10.548Z,3.47
2023-01-17T07:41:41.299Z,3.40
2023-01-17T07:44:10.882Z,3.40
2023-01-17T07:46:37.904Z,3.48
2023-01-17T07:49:04.997Z,3.53
2023-01-17T07:51:32.322Z,3.59
2023-01-17T07:53:59.306Z,3.53
2023-01-17T07:56:26.295Z,3.58
2023-01-17T07:58:53.625Z,3.55
2023-01-17T08:01:20.693Z,3.58
2023-01-17T08:03:51.303Z,3.61
2023-01-17T08:06:23.931Z,3.70
2023-01-17T08:08:55.039Z,3.84
2023-01-17T08:11:22.016Z,4.00
2023-01-17T08:13:49.213Z,4.19
2023-01-17T08:16:16.602Z,4.21
2023-01-17T08:18:43.633Z,4.15
2023-01-17T08:21:16.700Z,4.00
2023-01-17T08:23:48.065Z,3.88
2023-01-17T08:26:21.348Z,3.72
2023-01-17T08:29:01.224Z,3.61
2023-01-17T08:31:30.511Z,3.56
2023-01-17T08:33:58.300Z,3.53
2023-01-17T08:36:25.875Z,3.46
2023-01-17T08:38:53.531Z,3.50
2023-01-17T08:41:22.453Z,3.52
2023-01-17T08:43:51.205Z,3.42
2023-01-17T08:46:18.960Z,3.45
2023-01-17T08:48:46.616Z,3.50
2023-01-17T08:51:13.782Z,3.65
2023-01-17T08:53:40.907Z,3.70
2023-01-17T08:56:09.561Z,3.72
2023-01-17T08:58:36.712Z,3.82
2023-01-17T09:01:06.158Z,3.83
2023-01-17T09:03:34.524Z,3.86
2023-01-17T09:06:07.790Z,3.93
2023-01-17T09:08:35.919Z,3.96
2023-01-17T09:11:08.161Z,4.00
2023-01-17T09:13:36.607Z,3.99
2023-01-17T09:16:05.113Z,4.12
2023-01-17T09:18:36.478Z,4.19
2023-01-17T09:21:15.375Z,4.29
2023-01-17T09:23:43.343Z,4.41
2023-01-17T09:26:25.377Z,4.54
2023-01-17T09:28:52.774Z,4.62
2023-01-17T09:31:21.930Z,4.69
2023-01-17T09:33:50.419Z,4.75
2023-01-17T09:36:17.875Z,4.77
2023-01-17T09:38:45.539Z,4.88
2023-01-17T09:41:54.500Z,4.76
2023-01-17T09:44:52.211Z,5.07
2023-01-17T09:47:36.127Z,5.07
2023-01-17T09:50:31.499Z,5.05
2023-01-17T09:53:06.614Z,4.94
2023-01-17T09:55:42.644Z,5.08
2023-01-17T09:58:20.284Z,5.00
2023-01-17T10:00:59.742Z,5.18
2023-01-17T10:03:47.154Z,5.36
2023-01-17T10:06:17.136Z,5.36
2023-01-17T10:09:16.590Z,5.54
2023-01-17T10:11:46.683Z,5.60
2023-01-17T10:14:32.707Z,5.73
2023-01-17T10:17:32.129Z,5.81
2023-01-17T10:20:08.772Z,5.80
2023-01-17T10:23:05.465Z,5.88
2023-01-17T10:25:42.549Z,5.82
2023-01-17T10:28:16.788Z,5.77
2023-01-17T10:30:51.450Z,5.83
2023-01-17T10:33:20.673Z,5.88
2023-01-17T10:36:00.711Z,5.77
2023-01-17T10:38:36.863Z,5.82
2023-01-17T10:41:41.391Z,5.91
2023-01-17T10:44:43.808Z,5.92
2023-01-17T10:47:11.067Z,6.10
2023-01-17T10:49:44.883Z,6.10
2023-01-17T10:52:33.639Z,6.07
2023-01-17T10:55:40.021Z,6.19
2023-01-17T10:58:16.413Z,6.27
2023-01-17T11:01:00.060Z,6.43
2023-01-17T11:03:28.791Z,6.42
2023-01-17T11:06:26.489Z,6.62
2023-01-17T11:08:57.016Z,6.46
2023-01-17T11:11:33.407Z,6.53
2023-01-17T11:14:07.849Z,6.48
2023-01-17T11:16:37.239Z,6.52
2023-01-17T11:19:13.675Z,6.56
2023-01-17T11:21:52.343Z,6.62
2023-01-17T11:24:28.264Z,6.57
2023-01-17T11:26:55.483Z,6.62
2023-01-17T11:29:39.805Z,6.70
2023-01-17T11:32:36.478Z,6.70
2023-01-17T11:35:12.610Z,6.78
2023-01-17T11:38:06.851Z,6.77
2023-01-17T11:40:40.215Z,6.87
2023-01-17T11:43:18.505Z,6.91
2023-01-17T11:46:07.058Z,6.99
2023-01-17T11:48:36.954Z,6.94
2023-01-17T11:51:16.810Z,6.97
2023-01-17T11:53:48.146Z,7.00
2023-01-17T11:56:20.893Z,7.04
2023-01-17T11:58:48.042Z,7.14
2023-01-17T12:01:15.422Z,7.10
2023-01-17T12:04:20.910Z,7.17
2023-01-17T12:07:08.625Z,7.13
2023-01-17T12:09:43.490Z,7.13
2023-01-17T12:12:44.681Z,7.14
2023-01-17T12:15:18.036Z,7.16
2023-01-17T12:18:09.084Z,7.01
2023-01-17T12:20:46.620Z,7.18
2023-01-17T12:23:19.711Z,7.17
2023-01-17T12:25:47.029Z,7.24
2023-01-17T12:28:19.977Z,7.31
2023-01-17T12:31:17.477Z,7.37
2023-01-17T12:33:57.321Z,7.50
2023-01-17T12:36:34.495Z,7.48
2023-01-17T12:39:13.163Z,7.56
2023-01-17T12:42:01.214Z,7.55
2023-01-17T12:44:52.933Z,7.53
2023-01-17T12:47:21.427Z,7.53
2023-01-17T12:50:05.317Z,7.49
2023-01-17T12:52:51.205Z,7.55
2023-01-17T12:55:32.293Z,7.62
2023-01-17T12:58:04.140Z,7.63
2023-01-17T13:00:34.984Z,7.60
2023-01-17T13:03:48.517Z,7.47
2023-01-17T13:06:25.037Z,7.48
2023-01-17T13:08:58.189Z,7.44
2023-01-17T13:11:36.055Z,7.39
2023-01-17T13:14:06.408Z,7.38
2023-01-17T13:16:57.931Z,7.32
2023-01-17T13:19:37.752Z,7.32
2023-01-17T13:22:09.353Z,7.16
2023-01-17T13:24:48.791Z,7.08
2023-01-17T13:27:21.652Z,7.00
2023-01-17T13:30:15.344Z,6.92
2023-01-17T13:32:54.363Z,6.94
2023-01-17T13:35:50.970Z,6.88
2023-01-17T13:38:36.920Z,6.85
2023-01-17T13:41:17.460Z,6.75
2023-01-17T13:44:06.038Z,6.73
2023-01-17T13:47:02.754Z,6.71
2023-01-17T13:49:29.824Z,6.66
2023-01-17T13:52:12.347Z,6.66
2023-01-17T13:55:05.474Z,6.60
2023-01-17T13:57:41.924Z,6.56
2023-01-17T14:00:21.519Z,6.45
2023-01-17T14:02:50.776Z,6.47
2023-01-17T14:05:20.577Z,6.41
2023-01-17T14:08:14.444Z,6.39
2023-01-17T14:10:46.282Z,6.31
2023-01-17T14:13:37.482Z,6.24
2023-01-17T14:16:27.591Z,6.25
2023-01-17T14:18:55.767Z,6.33
2023-01-17T14:21:32.624Z,6.35
2023-01-17T14:24:03.872Z,6.25
2023-01-17T14:26:36.593Z,6.20
2023-01-17T14:29:45.258Z,6.16
2023-01-17T14:32:18.990Z,6.19
2023-01-17T14:34:49.636Z,6.24
2023-01-17T14:37:22.831Z,6.17
2023-01-17T14:39:50.995Z,6.07
2023-01-17T14:42:22.275Z,6.06
2023-01-17T14:44:52.640Z,6.06
2023-01-17T14:47:20.345Z,5.89
2023-01-17T14:49:47.486Z,5.93
2023-01-17T14:52:17.749Z,5.87
2023-01-17T14:54:52.330Z,5.75
2023-01-17T14:57:19.231Z,5.82
2023-01-17T14:59:46.855Z,5.83
2023-01-17T15:02:18.520Z,5.82
2023-01-17T15:04:54.579Z,5.79
2023-01-17T15:07:23.875Z,5.77
2023-01-17T15:09:51.089Z,5.73
2023-01-17T15:12:19.547Z,5.72
2023-01-17T15:14:46.950Z,5.83
2023-01-17T15:17:26.437Z,5.73
2023-01-17T15:20:03.699Z,5.81
2023-01-17T15:22:31.009Z,5.81
2023-01-17T15:24:59.608Z,5.78
2023-01-17T15:27:27.093Z,5.80
2023-01-17T15:29:57.403Z,5.73
2023-01-17T15:32:28.044Z,5.71
2023-01-17T15:34:55.270Z,5.72
2023-01-17T15:37:28.893Z,5.75
2023-01-17T15:40:19.855Z,5.74
2023-01-17T15:42:51.484Z,5.81
2023-01-17T15:45:27.889Z,5.77
2023-01-17T15:47:55.065Z,5.80
2023-01-17T15:50:26.593Z,5.77
2023-01-17T15:53:05.551Z,5.75
2023-01-17T15:55:38.597Z,5.87
2023-01-17T15:58:23.013Z,5.88
2023-01-17T16:00:50.487Z,5.80
2023-01-17T16:03:31.819Z,5.74
2023-01-17T16:06:01.177Z,5.85
2023-01-17T16:08:40.000Z,5.73
2023-01-17T16:11:10.605Z,5.75
2023-01-17T16:13:39.131Z,5.76
2023-01-17T16:16:24.055Z,5.81
2023-01-17T16:18:59.534Z,5.85
2023-01-17T16:21:29.824Z,5.84
2023-01-17T16:23:59.895Z,5.87
2023-01-17T16:26:29.122Z,5.83
2023-01-17T16:28:56.670Z,5.79
2023-01-17T16:31:23.888Z,5.75
2023-01-17T16:33:51.656Z,5.74
2023-01-17T16:36:21.156Z,5.61
2023-01-17T16:38:50.632Z,5.58
2023-01-17T16:41:18.154Z,5.63
2023-01-17T16:43:45.520Z,5.55
2023-01-17T16:46:12.633Z,5.53
2023-01-17T16:48:39.781Z,5.57
2023-01-17T16:51:07.840Z,5.52
2023-01-17T16:53:35.965Z,5.50
2023-01-17T16:56:11.816Z,5.50
2023-01-17T16:58:40.049Z,5.40
2023-01-17T17:01:16.488Z,5.38
2023-01-17T17:03:44.972Z,5.28
2023-01-17T17:06:13.310Z,5.32
2023-01-17T17:08:40.539Z,5.24
2023-01-17T17:11:16.740Z,5.16
2023-01-17T17:13:46.015Z,5.16
2023-01-17T17:16:29.923Z,5.16
2023-01-17T17:18:59.577Z,5.20
2023-01-17T17:21:28.197Z,5.18
2023-01-17T17:23:57.980Z,5.13
2023-01-17T17:26:28.932Z,5.10
2023-01-17T17:28:57.262Z,5.05
2023-01-17T17:31:24.398Z,5.05
2023-01-17T17:33:51.543Z,5.11
2023-01-17T17:36:19.180Z,5.09
2023-01-17T17:38:53.035Z,5.10
2023-01-17T17:41:23.788Z,5.05
2023-01-17T17:43:52.195Z,5.05
2023-01-17T17:46:21.072Z,5.06
2023-01-17T17:48:49.070Z,4.93
2023-01-17T17:51:29.003Z,4.89
2023-01-17T17:54:03.510Z,4.87
2023-01-17T17:56:31.104Z,4.93
2023-01-17T17:58:59.998Z,4.96
2023-01-17T18:01:27.762Z,4.95
2023-01-17T18:03:57.736Z,4.86
2023-01-17T18:06:24.824Z,4.86
2023-01-17T18:08:52.396Z,4.96
2023-01-17T18:11:22.638Z,4.95
2023-01-17T18:13:51.370Z,4.89
2023-01-17T18:16:35.539Z,4.86
2023-01-17T18:19:04.377Z,4.87
2023-01-17T18:21:36.829Z,4.87
2023-01-17T18:24:13.548Z,4.79
2023-01-17T18:26:52.722Z,4.81
2023-01-17T18:29:22.007Z,4.74
2023-01-17T18:31:50.449Z,4.71
2023-01-17T18:34:27.108Z,4.74
2023-01-17T18:36:54.811Z,4.69
2023-01-17T18:39:24.684Z,4.70
2023-01-17T18:41:52.248Z,4.67
2023-01-17T18:44:22.247Z,4.57
2023-01-17T18:46:52.448Z,4.57
2023-01-17T18:49:20.085Z,4.56
2023-01-17T18:51:50.727Z,4.45
2023-01-17T18:54:19.832Z,4.46
2023-01-17T18:56:47.615Z,4.39
2023-01-17T18:59:19.641Z,4.36
2023-01-17T19:01:47.285Z,4.37
2023-01-17T19:04:15.915Z,4.35
2023-01-17T19:06:46.897Z,4.30
2023-01-17T19:09:16.264Z,4.30
2023-01-17T19:11:44.983Z,4.22
2023-01-17T19:14:12.829Z,4.20
2023-01-17T19:16:41.509Z,4.08
2023-01-17T19:19:12.021Z,4.10
2023-01-17T19:21:39.562Z,4.08
2023-01-17T19:24:07.234Z,4.00
2023-01-17T19:26:34.393Z,3.95
2023-01-17T19:29:05.116Z,3.91
2023-01-17T19:31:37.201Z,3.80
2023-01-17T19:34:04.653Z,3.81
2023-01-17T19:36:34.425Z,3.76
2023-01-17T19:39:05.538Z,3.72
2023-01-17T19:41:40.388Z,3.68
2023-01-17T19:44:09.514Z,3.69
2023-01-17T19:46:37.082Z,3.65
2023-01-17T19:49:06.512Z,3.62
2023-01-17T19:51:34.489Z,3.60
2023-01-17T19:54:02.837Z,3.63
2023-01-17T19:56:30.251Z,3.63
2023-01-17T19:59:01.170Z,3.57
2023-01-17T20:01:30.941Z,3.63
2023-01-17T20:03:59.235Z,3.64
2023-01-17T20:06:29.536Z,3.64
2023-01-17T20:08:57.182Z,3.59
2023-01-17T20:11:26.334Z,3.64
2023-01-17T20:13:56.136Z,3.62
2023-01-17T20:16:25.181Z,3.63
2023-01-17T20:18:53.072Z,3.59
2023-01-17T20:21:23.345Z,3.62
2023-01-17T20:23:51.744Z,3.62
2023-01-17T20:26:22.657Z,3.59
2023-01-17T20:28:54.001Z,3.51
2023-01-17T20:31:23.728Z,3.47
2023-01-17T20:33:53.028Z,3.51
2023-01-17T20:36:22.440Z,3.57
2023-01-17T20:38:50.381Z,3.59
2023-01-17T20:41:21.754Z,3.56
2023-01-17T20:43:51.277Z,3.65
2023-01-17T20:46:20.797Z,3.65
2023-01-17T20:48:50.708Z,3.62
2023-01-17T20:51:18.636Z,3.68
2023-01-17T20:53:50.466Z,3.69
2023-01-17T20:56:18.100Z,3.56
2023-01-17T20:58:46.146Z,3.53
2023-01-17T21:01:19.209Z,3.49
2023-01-17T21:03:49.270Z,3.48
2023-01-17T21:06:16.600Z,3.50
2023-01-17T21:08:45.634Z,3.52
2023-01-17T21:11:15.534Z,3.45
2023-01-17T21:13:43.127Z,3.43
2023-01-17T21:16:13.468Z,3.42
2023-01-17T21:18:40.940Z,3.34
2023-01-17T21:21:12.454Z,3.31
2023-01-17T21:23:41.641Z,3.26
2023-01-17T21:26:12.101Z,3.31
2023-01-17T21:28:43.398Z,3.34
2023-01-17T21:31:20.521Z,3.24
2023-01-17T21:33:47.965Z,3.34
2023-01-17T21:36:16.325Z,3.31
2023-01-17T21:38:43.487Z,3.24
2023-01-17T21:41:10.534Z,3.22
2023-01-17T21:43:37.810Z,3.19
2023-01-17T21:46:06.728Z,3.22
2023-01-17T21:48:33.738Z,3.24
2023-01-17T21:51:05.727Z,3.22
2023-01-17T21:53:35.089Z,3.34
2023-01-17T21:56:22.827Z,3.35
2023-01-17T21:58:54.462Z,3.39
2023-01-17T22:01:23.633Z,3.43
2023-01-17T22:03:59.081Z,3.43
2023-01-17T22:06:32.022Z,3.43
2023-01-17T22:08:59.501Z,3.43
2023-01-17T22:11:27.407Z,3.40
2023-01-17T22:13:54.422Z,3.40
2023-01-17T22:16:24.366Z,3.41
2023-01-17T22:18:52.004Z,3.38
2023-01-17T22:21:24.156Z,3.43
2023-01-17T22:23:53.921Z,3.47
2023-01-17T22:26:23.883Z,3.50
2023-01-17T22:28:50.877Z,3.53
2023-01-17T22:31:21.229Z,3.58
2023-01-17T22:33:53.329Z,3.59
2023-01-17T22:36:20.868Z,3.61
2023-01-17T22:38:48.395Z,3.65
2023-01-17T22:41:19.977Z,3.75
2023-01-17T22:43:49.420Z,3.80
2023-01-17T22:46:22.466Z,3.78
2023-01-17T22:48:49.848Z,3.72
2023-01-17T22:51:19.000Z,3.88
2023-01-17T22:53:49.964Z,3.91
2023-01-17T22:56:20.169Z,3.95
2023-01-17T22:58:48.867Z,3.98
2023-01-17T23:01:19.009Z,4.00
2023-01-17T23:03:52.177Z,4.15
2023-01-17T23:06:22.986Z,4.23
2023-01-17T23:08:52.822Z,4.16
2023-01-17T23:11:45.238Z,4.25
2023-01-17T23:14:15.754Z,4.27
2023-01-17T23:17:02.549Z,4.16
2023-01-17T23:19:34.251Z,4.38
2023-01-17T23:22:21.096Z,4.27
2023-01-17T23:24:56.721Z,4.30
2023-01-17T23:27:43.795Z,4.32
2023-01-17T23:30:25.119Z,4.38
2023-01-17T23:32:55.273Z,4.32
2023-01-17T23:35:27.016Z,4.25
2023-01-17T23:38:13.136Z,4.31
2023-01-17T23:40:41.369Z,4.33
2023-01-17T23:43:23.661Z,4.32
2023-01-17T23:45:52.675Z,4.35
2023-01-17T23:48:20.665Z,4.35
2023-01-17T23:50:48.352Z,4.32
2023-01-17T23:53:22.463Z,4.37
2023-01-17T23:55:51.816Z,4.28
2023-01-17T23:58:20.976Z,4.27
